sensor_id;sensor_type;location;lat;lon;timestamp;temperature;humidity
38325;DHT22;24126;52.672;13.622;2023-03-08T00:01:32;6.30;70.30
38325;DHT22;24126;52.672;13.622;2023-03-08T00:03:59;6.30;70.30
38325;DHT22;24126;52.672;13.622;2023-03-08T00:06:26;6.30;70.40
38325;DHT22;24126;52.672;13.622;2023-03-08T00:08:57;6.30;70.40
38325;DHT22;24126;52.672;13.622;2023-03-08T00:11:24;6.30;70.40
38325;DHT22;24126;52.672;13.622;2023-03-08T00:13:51;6.20;70.30
38325;DHT22;24126;52.672;13.622;2023-03-08T00:16:18;6.20;70.40
38325;DHT22;24126;52.672;13.622;2023-03-08T00:18:45;6.20;70.40
38325;DHT22;24126;52.672;13.622;2023-03-08T00:21:13;6.10;70.30
38325;DHT22;24126;52.672;13.622;2023-03-08T00:23:41;6.10;70.40
38325;DHT22;24126;52.672;13.622;2023-03-08T00:26:09;6.10;70.40
38325;DHT22;24126;52.672;13.622;2023-03-08T00:28:36;6.10;70.40
38325;DHT22;24126;52.672;13.622;2023-03-08T00:31:04;6.00;70.30
38325;DHT22;24126;52.672;13.622;2023-03-08T00:33:31;6.00;70.30
38325;DHT22;24126;52.672;13.622;2023-03-08T00:36:05;6.00;70.40
38325;DHT22;24126;52.672;13.622;2023-03-08T00:38:35;6.00;70.40
38325;DHT22;24126;52.672;13.622;2023-03-08T00:41:02;6.00;70.50
38325;DHT22;24126;52.672;13.622;2023-03-08T00:43:31;5.90;70.40
38325;DHT22;24126;52.672;13.622;2023-03-08T00:46:02;5.90;70.40
38325;DHT22;24126;52.672;13.622;2023-03-08T00:48:29;5.90;70.60
38325;DHT22;24126;52.672;13.622;2023-03-08T00:50:56;5.90;70.60
38325;DHT22;24126;52.672;13.622;2023-03-08T00:53:24;5.90;70.70
38325;DHT22;24126;52.672;13.622;2023-03-08T00:55:52;5.90;70.60
38325;DHT22;24126;52.672;13.622;2023-03-08T00:58:20;5.80;70.60
38325;DHT22;24126;52.672;13.622;2023-03-08T01:00:47;5.80;70.60
38325;DHT22;24126;52.672;13.622;2023-03-08T01:03:15;5.80;70.60
38325;DHT22;24126;52.672;13.622;2023-03-08T01:05:42;5.80;70.70
38325;DHT22;24126;52.672;13.622;2023-03-08T01:08:12;5.80;70.70
38325;DHT22;24126;52.672;13.622;2023-03-08T01:10:39;5.70;70.80
38325;DHT22;24126;52.672;13.622;2023-03-08T01:13:07;5.70;70.90
38325;DHT22;24126;52.672;13.622;2023-03-08T01:15:35;5.70;70.90
38325;DHT22;24126;52.672;13.622;2023-03-08T01:18:04;5.70;70.90
38325;DHT22;24126;52.672;13.622;2023-03-08T01:20:31;5.70;70.90
38325;DHT22;24126;52.672;13.622;2023-03-08T01:22:58;5.70;70.90
38325;DHT22;24126;52.672;13.622;2023-03-08T01:25:25;5.70;70.90
38325;DHT22;24126;52.672;13.622;2023-03-08T01:27:52;5.70;70.90
38325;DHT22;24126;52.672;13.622;2023-03-08T01:30:20;5.70;70.90
38325;DHT22;24126;52.672;13.622;2023-03-08T01:32:47;5.70;71.00
38325;DHT22;24126;52.672;13.622;2023-03-08T01:35:14;5.70;71.00
38325;DHT22;24126;52.672;13.622;2023-03-08T01:37:41;5.60;70.90
38325;DHT22;24126;52.672;13.622;2023-03-08T01:40:08;5.60;71.00
38325;DHT22;24126;52.672;13.622;2023-03-08T01:42:36;5.60;71.00
38325;DHT22;24126;52.672;13.622;2023-03-08T01:45:05;5.60;70.90
38325;DHT22;24126;52.672;13.622;2023-03-08T01:47:52;5.60;71.10
38325;DHT22;24126;52.672;13.622;2023-03-08T01:50:25;5.50;71.20
38325;DHT22;24126;52.672;13.622;2023-03-08T01:52:52;5.50;71.30
38325;DHT22;24126;52.672;13.622;2023-03-08T01:55:20;5.50;71.30
38325;DHT22;24126;52.672;13.622;2023-03-08T01:57:50;5.50;71.30
38325;DHT22;24126;52.672;13.622;2023-03-08T02:00:22;5.50;71.40
38325;DHT22;24126;52.672;13.622;2023-03-08T02:02:52;5.50;71.20
38325;DHT22;24126;52.672;13.622;2023-03-08T02:05:20;5.50;71.20
38325;DHT22;24126;52.672;13.622;2023-03-08T02:07:51;5.50;71.20
38325;DHT22;24126;52.672;13.622;2023-03-08T02:10:19;5.50;71.20
38325;DHT22;24126;52.672;13.622;2023-03-08T02:12:46;5.50;71.20
38325;DHT22;24126;52.672;13.622;2023-03-08T02:15:16;5.50;71.40
38325;DHT22;24126;52.672;13.622;2023-03-08T02:17:47;5.40;71.60
38325;DHT22;24126;52.672;13.622;2023-03-08T02:20:34;5.50;71.80
38325;DHT22;24126;52.672;13.622;2023-03-08T02:23:10;5.50;71.80
38325;DHT22;24126;52.672;13.622;2023-03-08T02:25:40;5.50;72.00
38325;DHT22;24126;52.672;13.622;2023-03-08T02:28:08;5.50;72.10
38325;DHT22;24126;52.672;13.622;2023-03-08T02:30:36;5.50;72.00
38325;DHT22;24126;52.672;13.622;2023-03-08T02:33:03;5.50;72.00
38325;DHT22;24126;52.672;13.622;2023-03-08T02:35:30;5.50;72.00
38325;DHT22;24126;52.672;13.622;2023-03-08T02:37:58;5.50;71.90
38325;DHT22;24126;52.672;13.622;2023-03-08T02:40:25;5.50;71.90
38325;DHT22;24126;52.672;13.622;2023-03-08T02:42:52;5.50;72.00
38325;DHT22;24126;52.672;13.622;2023-03-08T02:45:21;5.50;72.10
38325;DHT22;24126;52.672;13.622;2023-03-08T02:47:48;5.50;72.20
38325;DHT22;24126;52.672;13.622;2023-03-08T02:50:16;5.50;72.20
38325;DHT22;24126;52.672;13.622;2023-03-08T02:52:44;5.50;72.30
38325;DHT22;24126;52.672;13.622;2023-03-08T02:55:11;5.60;72.30
38325;DHT22;24126;52.672;13.622;2023-03-08T02:57:38;5.60;72.30
38325;DHT22;24126;52.672;13.622;2023-03-08T03:00:05;5.60;72.30
38325;DHT22;24126;52.672;13.622;2023-03-08T03:02:32;5.60;72.40
38325;DHT22;24126;52.672;13.622;2023-03-08T03:05:01;5.60;72.40
38325;DHT22;24126;52.672;13.622;2023-03-08T03:07:28;5.60;72.30
38325;DHT22;24126;52.672;13.622;2023-03-08T03:09:56;5.60;72.40
38325;DHT22;24126;52.672;13.622;2023-03-08T03:12:23;5.60;72.40
38325;DHT22;24126;52.672;13.622;2023-03-08T03:14:50;5.60;72.50
38325;DHT22;24126;52.672;13.622;2023-03-08T03:17:17;5.70;72.50
38325;DHT22;24126;52.672;13.622;2023-03-08T03:19:44;5.70;72.50
38325;DHT22;24126;52.672;13.622;2023-03-08T03:22:11;5.70;72.50
38325;DHT22;24126;52.672;13.622;2023-03-08T03:24:39;5.70;72.50
38325;DHT22;24126;52.672;13.622;2023-03-08T03:27:06;5.70;72.60
38325;DHT22;24126;52.672;13.622;2023-03-08T03:29:37;5.70;72.60
38325;DHT22;24126;52.672;13.622;2023-03-08T03:32:10;5.70;72.60
38325;DHT22;24126;52.672;13.622;2023-03-08T03:34:37;5.70;72.60
38325;DHT22;24126;52.672;13.622;2023-03-08T03:37:04;5.70;72.60
38325;DHT22;24126;52.672;13.622;2023-03-08T03:39:38;5.70;72.50
38325;DHT22;24126;52.672;13.622;2023-03-08T03:42:07;5.70;72.50
38325;DHT22;24126;52.672;13.622;2023-03-08T03:44:38;5.70;72.50
38325;DHT22;24126;52.672;13.622;2023-03-08T03:47:07;5.80;72.60
38325;DHT22;24126;52.672;13.622;2023-03-08T03:49:35;5.80;72.60
38325;DHT22;24126;52.672;13.622;2023-03-08T03:52:02;5.80;72.50
38325;DHT22;24126;52.672;13.622;2023-03-08T03:54:39;5.80;72.50
38325;DHT22;24126;52.672;13.622;2023-03-08T03:57:07;5.80;72.30
38325;DHT22;24126;52.672;13.622;2023-03-08T03:59:37;5.80;72.20
38325;DHT22;24126;52.672;13.622;2023-03-08T04:02:04;5.80;72.20
38325;DHT22;24126;52.672;13.622;2023-03-08T04:04:37;5.80;72.30
38325;DHT22;24126;52.672;13.622;2023-03-08T04:07:05;5.80;72.50
38325;DHT22;24126;52.672;13.622;2023-03-08T04:09:38;5.80;72.30
38325;DHT22;24126;52.672;13.622;2023-03-08T04:12:09;5.80;72.30
38325;DHT22;24126;52.672;13.622;2023-03-08T04:14:38;5.90;72.10
38325;DHT22;24126;52.672;13.622;2023-03-08T04:17:07;5.80;72.00
38325;DHT22;24126;52.672;13.622;2023-03-08T04:19:42;5.80;72.00
38325;DHT22;24126;52.672;13.622;2023-03-08T04:22:11;5.80;72.00
38325;DHT22;24126;52.672;13.622;2023-03-08T04:24:45;5.80;72.00
38325;DHT22;24126;52.672;13.622;2023-03-08T04:27:17;5.80;71.90
38325;DHT22;24126;52.672;13.622;2023-03-08T04:29:44;5.80;72.00
38325;DHT22;24126;52.672;13.622;2023-03-08T04:32:11;5.80;72.00
38325;DHT22;24126;52.672;13.622;2023-03-08T04:34:44;5.80;71.90
38325;DHT22;24126;52.672;13.622;2023-03-08T04:37:14;5.80;71.90
38325;DHT22;24126;52.672;13.622;2023-03-08T04:39:46;5.80;71.90
38325;DHT22;24126;52.672;13.622;2023-03-08T04:42:13;5.80;71.70
38325;DHT22;24126;52.672;13.622;2023-03-08T04:44:40;5.80;71.80
38325;DHT22;24126;52.672;13.622;2023-03-08T04:47:07;5.80;71.80
38325;DHT22;24126;52.672;13.622;2023-03-08T04:49:41;5.80;71.80
38325;DHT22;24126;52.672;13.622;2023-03-08T04:52:08;5.80;71.70
38325;DHT22;24126;52.672;13.622;2023-03-08T04:54:37;5.80;71.70
38325;DHT22;24126;52.672;13.622;2023-03-08T04:57:13;5.80;71.70
38325;DHT22;24126;52.672;13.622;2023-03-08T04:59:42;5.80;71.70
38325;DHT22;24126;52.672;13.622;2023-03-08T05:02:09;5.80;71.60
38325;DHT22;24126;52.672;13.622;2023-03-08T05:04:37;5.80;71.60
38325;DHT22;24126;52.672;13.622;2023-03-08T05:07:05;5.80;71.50
38325;DHT22;24126;52.672;13.622;2023-03-08T05:09:34;5.80;71.50
38325;DHT22;24126;52.672;13.622;2023-03-08T05:12:01;5.80;71.50
38325;DHT22;24126;52.672;13.622;2023-03-08T05:14:47;5.80;71.40
38325;DHT22;24126;52.672;13.622;2023-03-08T05:17:14;5.80;71.40
38325;DHT22;24126;52.672;13.622;2023-03-08T05:19:41;5.80;71.40
38325;DHT22;24126;52.672;13.622;2023-03-08T05:22:10;5.80;71.40
38325;DHT22;24126;52.672;13.622;2023-03-08T05:24:44;5.80;71.50
38325;DHT22;24126;52.672;13.622;2023-03-08T05:27:13;5.80;71.50
38325;DHT22;24126;52.672;13.622;2023-03-08T05:29:40;5.80;71.50
38325;DHT22;24126;52.672;13.622;2023-03-08T05:32:11;5.90;71.40
38325;DHT22;24126;52.672;13.622;2023-03-08T05:34:39;5.90;71.40
38325;DHT22;24126;52.672;13.622;2023-03-08T05:37:10;5.90;71.40
38325;DHT22;24126;52.672;13.622;2023-03-08T05:39:39;5.90;71.40
38325;DHT22;24126;52.672;13.622;2023-03-08T05:42:15;5.90;71.50
38325;DHT22;24126;52.672;13.622;2023-03-08T05:44:44;5.90;71.50
38325;DHT22;24126;52.672;13.622;2023-03-08T05:47:13;5.90;71.50
38325;DHT22;24126;52.672;13.622;2023-03-08T05:49:40;5.90;71.40
38325;DHT22;24126;52.672;13.622;2023-03-08T05:52:08;5.90;71.30
38325;DHT22;24126;52.672;13.622;2023-03-08T05:54:35;5.90;71.30
38325;DHT22;24126;52.672;13.622;2023-03-08T05:57:08;5.90;71.20
38325;DHT22;24126;52.672;13.622;2023-03-08T05:59:36;5.90;71.20
38325;DHT22;24126;52.672;13.622;2023-03-08T06:02:05;5.90;71.30
38325;DHT22;24126;52.672;13.622;2023-03-08T06:04:37;5.90;71.40
38325;DHT22;24126;52.672;13.622;2023-03-08T06:07:04;5.90;71.50
38325;DHT22;24126;52.672;13.622;2023-03-08T06:09:36;6.00;71.50
38325;DHT22;24126;52.672;13.622;2023-03-08T06:12:03;5.90;71.60
38325;DHT22;24126;52.672;13.622;2023-03-08T06:14:31;6.00;71.50
38325;DHT22;24126;52.672;13.622;2023-03-08T06:16:58;6.00;71.50
38325;DHT22;24126;52.672;13.622;2023-03-08T06:19:28;6.00;71.40
38325;DHT22;24126;52.672;13.622;2023-03-08T06:21:56;6.00;71.50
38325;DHT22;24126;52.672;13.622;2023-03-08T06:24:24;6.10;71.50
38325;DHT22;24126;52.672;13.622;2023-03-08T06:26:52;6.00;71.40
38325;DHT22;24126;52.672;13.622;2023-03-08T06:29:21;6.00;71.50
38325;DHT22;24126;52.672;13.622;2023-03-08T06:31:48;6.00;71.50
38325;DHT22;24126;52.672;13.622;2023-03-08T06:34:16;6.10;71.50
38325;DHT22;24126;52.672;13.622;2023-03-08T06:36:44;6.10;71.60
38325;DHT22;24126;52.672;13.622;2023-03-08T06:39:12;6.10;71.80
38325;DHT22;24126;52.672;13.622;2023-03-08T06:41:39;6.10;71.60
38325;DHT22;24126;52.672;13.622;2023-03-08T06:44:06;6.10;71.60
38325;DHT22;24126;52.672;13.622;2023-03-08T06:46:33;6.10;71.60
38325;DHT22;24126;52.672;13.622;2023-03-08T06:49:00;6.20;71.70
38325;DHT22;24126;52.672;13.622;2023-03-08T06:51:29;6.20;71.80
38325;DHT22;24126;52.672;13.622;2023-03-08T06:53:56;6.20;71.70
38325;DHT22;24126;52.672;13.622;2023-03-08T06:56:26;6.20;71.60
38325;DHT22;24126;52.672;13.622;2023-03-08T06:58:53;6.30;71.60
38325;DHT22;24126;52.672;13.622;2023-03-08T07:01:20;6.30;71.50
38325;DHT22;24126;52.672;13.622;2023-03-08T07:03:47;6.30;71.50
38325;DHT22;24126;52.672;13.622;2023-03-08T07:06:15;6.30;71.60
38325;DHT22;24126;52.672;13.622;2023-03-08T07:08:43;6.30;71.70
38325;DHT22;24126;52.672;13.622;2023-03-08T07:11:10;6.40;71.60
38325;DHT22;24126;52.672;13.622;2023-03-08T07:13:37;6.40;71.60
38325;DHT22;24126;52.672;13.622;2023-03-08T07:16:05;6.50;71.50
38325;DHT22;24126;52.672;13.622;2023-03-08T07:18:33;6.50;71.30
38325;DHT22;24126;52.672;13.622;2023-03-08T07:21:00;6.60;71.30
38325;DHT22;24126;52.672;13.622;2023-03-08T07:23:27;6.60;71.30
38325;DHT22;24126;52.672;13.622;2023-03-08T07:25:54;6.60;71.20
38325;DHT22;24126;52.672;13.622;2023-03-08T07:28:22;6.70;71.30
38325;DHT22;24126;52.672;13.622;2023-03-08T07:30:49;6.70;71.10
38325;DHT22;24126;52.672;13.622;2023-03-08T07:33:18;6.80;71.00
38325;DHT22;24126;52.672;13.622;2023-03-08T07:35:45;6.80;70.60
38325;DHT22;24126;52.672;13.622;2023-03-08T07:38:13;6.80;70.60
38325;DHT22;24126;52.672;13.622;2023-03-08T07:40:40;6.90;70.60
38325;DHT22;24126;52.672;13.622;2023-03-08T07:43:07;6.90;70.40
38325;DHT22;24126;52.672;13.622;2023-03-08T07:45:51;7.00;70.10
38325;DHT22;24126;52.672;13.622;2023-03-08T07:48:18;7.10;69.90
38325;DHT22;24126;52.672;13.622;2023-03-08T07:50:45;7.10;69.80
38325;DHT22;24126;52.672;13.622;2023-03-08T07:53:12;7.20;69.50
38325;DHT22;24126;52.672;13.622;2023-03-08T07:55:39;7.30;69.50
38325;DHT22;24126;52.672;13.622;2023-03-08T07:58:07;7.40;69.20
38325;DHT22;24126;52.672;13.622;2023-03-08T08:00:34;7.40;68.60
38325;DHT22;24126;52.672;13.622;2023-03-08T08:03:01;7.40;68.40
38325;DHT22;24126;52.672;13.622;2023-03-08T08:05:30;7.50;68.30
38325;DHT22;24126;52.672;13.622;2023-03-08T08:07:57;7.40;68.20
38325;DHT22;24126;52.672;13.622;2023-03-08T08:10:24;7.40;68.10
38325;DHT22;24126;52.672;13.622;2023-03-08T08:12:51;7.40;68.40
38325;DHT22;24126;52.672;13.622;2023-03-08T08:15:18;7.50;68.70
38325;DHT22;24126;52.672;13.622;2023-03-08T08:17:45;7.50;68.50
38325;DHT22;24126;52.672;13.622;2023-03-08T08:20:13;7.60;68.40
38325;DHT22;24126;52.672;13.622;2023-03-08T08:22:40;7.60;68.10
38325;DHT22;24126;52.672;13.622;2023-03-08T08:25:07;7.60;68.10
38325;DHT22;24126;52.672;13.622;2023-03-08T08:27:36;7.60;68.20
38325;DHT22;24126;52.672;13.622;2023-03-08T08:30:04;7.70;68.40
38325;DHT22;24126;52.672;13.622;2023-03-08T08:32:34;7.70;68.10
38325;DHT22;24126;52.672;13.622;2023-03-08T08:35:01;7.70;68.00
38325;DHT22;24126;52.672;13.622;2023-03-08T08:37:30;7.80;68.20
38325;DHT22;24126;52.672;13.622;2023-03-08T08:39:57;7.90;68.20
38325;DHT22;24126;52.672;13.622;2023-03-08T08:42:24;8.00;68.10
38325;DHT22;24126;52.672;13.622;2023-03-08T08:44:52;8.20;68.50
38325;DHT22;24126;52.672;13.622;2023-03-08T08:47:20;8.30;67.30
38325;DHT22;24126;52.672;13.622;2023-03-08T08:49:47;8.50;66.80
38325;DHT22;24126;52.672;13.622;2023-03-08T08:52:14;8.70;66.40
38325;DHT22;24126;52.672;13.622;2023-03-08T08:54:41;8.90;65.80
38325;DHT22;24126;52.672;13.622;2023-03-08T08:57:08;8.90;64.60
38325;DHT22;24126;52.672;13.622;2023-03-08T08:59:35;8.90;64.00
38325;DHT22;24126;52.672;13.622;2023-03-08T09:02:02;8.90;64.20
38325;DHT22;24126;52.672;13.622;2023-03-08T09:04:30;8.80;63.90
38325;DHT22;24126;52.672;13.622;2023-03-08T09:06:57;8.80;64.00
38325;DHT22;24126;52.672;13.622;2023-03-08T09:09:24;8.80;64.30
38325;DHT22;24126;52.672;13.622;2023-03-08T09:11:51;8.90;64.00
38325;DHT22;24126;52.672;13.622;2023-03-08T09:14:19;8.90;63.50
38325;DHT22;24126;52.672;13.622;2023-03-08T09:16:46;8.90;63.00
38325;DHT22;24126;52.672;13.622;2023-03-08T09:19:13;8.90;63.00
38325;DHT22;24126;52.672;13.622;2023-03-08T09:21:40;9.00;63.70
38325;DHT22;24126;52.672;13.622;2023-03-08T09:24:14;9.00;63.20
38325;DHT22;24126;52.672;13.622;2023-03-08T09:26:45;9.00;62.90
38325;DHT22;24126;52.672;13.622;2023-03-08T09:29:12;9.10;62.80
38325;DHT22;24126;52.672;13.622;2023-03-08T09:31:39;9.20;63.20
38325;DHT22;24126;52.672;13.622;2023-03-08T09:34:07;9.20;62.70
38325;DHT22;24126;52.672;13.622;2023-03-08T09:36:35;9.30;62.30
38325;DHT22;24126;52.672;13.622;2023-03-08T09:39:02;9.30;63.40
38325;DHT22;24126;52.672;13.622;2023-03-08T09:46:34;9.60;62.10
38325;DHT22;24126;52.672;13.622;2023-03-08T09:49:02;9.70;62.00
38325;DHT22;24126;52.672;13.622;2023-03-08T09:51:33;9.80;62.80
38325;DHT22;24126;52.672;13.622;2023-03-08T09:54:03;10.00;61.60
38325;DHT22;24126;52.672;13.622;2023-03-08T09:56:35;10.10;61.10
38325;DHT22;24126;52.672;13.622;2023-03-08T09:59:04;10.30;60.50
38325;DHT22;24126;52.672;13.622;2023-03-08T10:04:14;10.50;59.80
38325;DHT22;24126;52.672;13.622;2023-03-08T10:09:41;10.50;58.80
38325;DHT22;24126;52.672;13.622;2023-03-08T10:15:03;10.60;58.30
38325;DHT22;24126;52.672;13.622;2023-03-08T10:17:36;10.60;58.10
38325;DHT22;24126;52.672;13.622;2023-03-08T10:20:06;10.60;58.60
38325;DHT22;24126;52.672;13.622;2023-03-08T10:22:37;10.60;58.20
38325;DHT22;24126;52.672;13.622;2023-03-08T10:25:26;10.60;58.40
38325;DHT22;24126;52.672;13.622;2023-03-08T10:27:57;10.60;58.00
38325;DHT22;24126;52.672;13.622;2023-03-08T10:30:26;10.60;57.90
38325;DHT22;24126;52.672;13.622;2023-03-08T10:32:54;10.60;57.80
38325;DHT22;24126;52.672;13.622;2023-03-08T10:35:34;10.70;58.00
38325;DHT22;24126;52.672;13.622;2023-03-08T10:38:03;10.70;58.00
38325;DHT22;24126;52.672;13.622;2023-03-08T10:40:30;10.70;57.70
38325;DHT22;24126;52.672;13.622;2023-03-08T10:42:59;10.70;57.80
38325;DHT22;24126;52.672;13.622;2023-03-08T10:45:28;10.80;57.50
38325;DHT22;24126;52.672;13.622;2023-03-08T10:47:59;10.80;56.80
38325;DHT22;24126;52.672;13.622;2023-03-08T10:50:27;10.80;57.30
38325;DHT22;24126;52.672;13.622;2023-03-08T10:52:55;10.90;57.10
38325;DHT22;24126;52.672;13.622;2023-03-08T10:55:37;10.90;56.70
38325;DHT22;24126;52.672;13.622;2023-03-08T10:58:20;11.00;56.70
38325;DHT22;24126;52.672;13.622;2023-03-08T11:00:51;11.10;56.80
38325;DHT22;24126;52.672;13.622;2023-03-08T11:03:19;11.20;55.90
38325;DHT22;24126;52.672;13.622;2023-03-08T11:06:00;11.20;55.50
38325;DHT22;24126;52.672;13.622;2023-03-08T11:08:29;11.30;55.80
38325;DHT22;24126;52.672;13.622;2023-03-08T11:11:04;11.30;56.10
38325;DHT22;24126;52.672;13.622;2023-03-08T11:13:36;11.40;55.90
38325;DHT22;24126;52.672;13.622;2023-03-08T11:18:51;11.50;55.10
38325;DHT22;24126;52.672;13.622;2023-03-08T11:21:45;11.40;54.60
38325;DHT22;24126;52.672;13.622;2023-03-08T11:24:17;11.40;54.80
38325;DHT22;24126;52.672;13.622;2023-03-08T11:26:53;11.30;54.80
38325;DHT22;24126;52.672;13.622;2023-03-08T11:32:31;11.30;54.30
38325;DHT22;24126;52.672;13.622;2023-03-08T11:35:07;11.20;54.60
38325;DHT22;24126;52.672;13.622;2023-03-08T11:37:43;11.20;54.10
38325;DHT22;24126;52.672;13.622;2023-03-08T11:40:13;11.10;54.40
38325;DHT22;24126;52.672;13.622;2023-03-08T11:50:22;10.80;55.20
38325;DHT22;24126;52.672;13.622;2023-03-08T12:00:43;10.80;54.60
38325;DHT22;24126;52.672;13.622;2023-03-08T12:03:13;10.80;55.20
38325;DHT22;24126;52.672;13.622;2023-03-08T12:05:49;10.80;54.80
38325;DHT22;24126;52.672;13.622;2023-03-08T12:08:23;10.90;54.70
38325;DHT22;24126;52.672;13.622;2023-03-08T12:13:37;10.80;53.70
38325;DHT22;24126;52.672;13.622;2023-03-08T13:29:09;10.00;54.10
38325;DHT22;24126;52.672;13.622;2023-03-08T13:31:37;10.00;54.20
38325;DHT22;24126;52.672;13.622;2023-03-08T13:34:04;10.10;54.40
38325;DHT22;24126;52.672;13.622;2023-03-08T13:36:46;10.10;54.80
38325;DHT22;24126;52.672;13.622;2023-03-08T13:39:36;10.10;54.90
38325;DHT22;24126;52.672;13.622;2023-03-08T13:42:09;10.10;54.50
38325;DHT22;24126;52.672;13.622;2023-03-08T13:44:36;10.20;54.60
38325;DHT22;24126;52.672;13.622;2023-03-08T13:47:12;10.20;55.20
38325;DHT22;24126;52.672;13.622;2023-03-08T13:49:41;10.20;53.90
38325;DHT22;24126;52.672;13.622;2023-03-08T13:52:22;10.10;53.70
38325;DHT22;24126;52.672;13.622;2023-03-08T13:54:52;10.00;53.90
38325;DHT22;24126;52.672;13.622;2023-03-08T13:57:20;10.00;53.90
38325;DHT22;24126;52.672;13.622;2023-03-08T13:59:49;10.00;54.20
38325;DHT22;24126;52.672;13.622;2023-03-08T14:17:29;10.10;55.20
38325;DHT22;24126;52.672;13.622;2023-03-08T14:20:01;10.00;54.90
38325;DHT22;24126;52.672;13.622;2023-03-08T14:22:32;10.10;55.10
38325;DHT22;24126;52.672;13.622;2023-03-08T14:25:02;10.00;55.00
38325;DHT22;24126;52.672;13.622;2023-03-08T14:27:32;10.00;55.60
38325;DHT22;24126;52.672;13.622;2023-03-08T14:30:12;9.90;55.30
38325;DHT22;24126;52.672;13.622;2023-03-08T14:32:39;9.90;55.20
38325;DHT22;24126;52.672;13.622;2023-03-08T14:35:15;9.90;54.90
38325;DHT22;24126;52.672;13.622;2023-03-08T14:37:43;9.80;54.90
38325;DHT22;24126;52.672;13.622;2023-03-08T14:42:48;9.60;56.20
38325;DHT22;24126;52.672;13.622;2023-03-08T14:47:48;9.40;57.30
38325;DHT22;24126;52.672;13.622;2023-03-08T14:52:44;9.50;58.20
38325;DHT22;24126;52.672;13.622;2023-03-08T14:55:45;9.50;57.50
38325;DHT22;24126;52.672;13.622;2023-03-08T14:58:11;9.50;58.30
38325;DHT22;24126;52.672;13.622;2023-03-08T15:00:49;9.40;58.60
38325;DHT22;24126;52.672;13.622;2023-03-08T15:03:16;9.40;59.40
38325;DHT22;24126;52.672;13.622;2023-03-08T15:05:43;9.40;59.30
38325;DHT22;24126;52.672;13.622;2023-03-08T15:08:11;9.30;60.10
38325;DHT22;24126;52.672;13.622;2023-03-08T15:10:39;9.30;60.00
38325;DHT22;24126;52.672;13.622;2023-03-08T15:13:15;9.20;59.90
38325;DHT22;24126;52.672;13.622;2023-03-08T15:15:42;9.20;60.20
38325;DHT22;24126;52.672;13.622;2023-03-08T15:18:10;9.10;60.70
38325;DHT22;24126;52.672;13.622;2023-03-08T15:20:38;9.10;61.20
38325;DHT22;24126;52.672;13.622;2023-03-08T15:23:10;9.10;61.00
38325;DHT22;24126;52.672;13.622;2023-03-08T15:25:38;9.00;60.60
38325;DHT22;24126;52.672;13.622;2023-03-08T15:28:06;9.00;60.70
38325;DHT22;24126;52.672;13.622;2023-03-08T15:30:33;8.90;61.30
38325;DHT22;24126;52.672;13.622;2023-03-08T15:33:00;8.90;61.70
38325;DHT22;24126;52.672;13.622;2023-03-08T15:35:27;8.90;62.20
38325;DHT22;24126;52.672;13.622;2023-03-08T15:37:55;8.80;62.50
38325;DHT22;24126;52.672;13.622;2023-03-08T15:40:30;8.80;62.90
38325;DHT22;24126;52.672;13.622;2023-03-08T15:42:57;8.80;63.10
38325;DHT22;24126;52.672;13.622;2023-03-08T15:45:25;8.70;63.30
38325;DHT22;24126;52.672;13.622;2023-03-08T15:47:57;8.60;63.40
38325;DHT22;24126;52.672;13.622;2023-03-08T15:50:24;8.60;63.70
38325;DHT22;24126;52.672;13.622;2023-03-08T15:52:52;8.60;64.10
38325;DHT22;24126;52.672;13.622;2023-03-08T15:55:20;8.60;64.30
38325;DHT22;24126;52.672;13.622;2023-03-08T15:57:47;8.50;64.40
38325;DHT22;24126;52.672;13.622;2023-03-08T16:00:15;8.50;65.30
38325;DHT22;24126;52.672;13.622;2023-03-08T16:02:42;8.50;65.10
38325;DHT22;24126;52.672;13.622;2023-03-08T16:05:10;8.50;64.80
38325;DHT22;24126;52.672;13.622;2023-03-08T16:07:38;8.40;64.90
38325;DHT22;24126;52.672;13.622;2023-03-08T16:10:07;8.40;64.60
38325;DHT22;24126;52.672;13.622;2023-03-08T16:12:35;8.40;64.70
38325;DHT22;24126;52.672;13.622;2023-03-08T16:15:02;8.30;65.10
38325;DHT22;24126;52.672;13.622;2023-03-08T16:17:29;8.30;65.50
38325;DHT22;24126;52.672;13.622;2023-03-08T16:19:56;8.30;65.60
38325;DHT22;24126;52.672;13.622;2023-03-08T16:22:23;8.30;65.80
38325;DHT22;24126;52.672;13.622;2023-03-08T16:24:51;8.30;65.70
38325;DHT22;24126;52.672;13.622;2023-03-08T16:27:18;8.20;65.50
38325;DHT22;24126;52.672;13.622;2023-03-08T16:29:48;8.20;65.20
38325;DHT22;24126;52.672;13.622;2023-03-08T16:32:15;8.20;65.50
38325;DHT22;24126;52.672;13.622;2023-03-08T16:34:43;8.20;65.50
38325;DHT22;24126;52.672;13.622;2023-03-08T16:37:16;8.10;65.70
38325;DHT22;24126;52.672;13.622;2023-03-08T16:39:44;8.10;65.90
38325;DHT22;24126;52.672;13.622;2023-03-08T16:42:12;8.10;66.20
38325;DHT22;24126;52.672;13.622;2023-03-08T16:44:39;8.10;66.20
38325;DHT22;24126;52.672;13.622;2023-03-08T16:47:06;8.10;66.20
38325;DHT22;24126;52.672;13.622;2023-03-08T16:49:34;8.10;66.20
38325;DHT22;24126;52.672;13.622;2023-03-08T16:52:01;8.10;66.20
38325;DHT22;24126;52.672;13.622;2023-03-08T16:54:28;8.10;66.30
38325;DHT22;24126;52.672;13.622;2023-03-08T16:56:56;8.10;66.50
38325;DHT22;24126;52.672;13.622;2023-03-08T16:59:23;8.10;66.80
38325;DHT22;24126;52.672;13.622;2023-03-08T17:01:50;8.00;67.00
38325;DHT22;24126;52.672;13.622;2023-03-08T17:04:17;8.00;67.10
38325;DHT22;24126;52.672;13.622;2023-03-08T17:06:47;8.00;67.40
38325;DHT22;24126;52.672;13.622;2023-03-08T17:09:15;8.00;67.60
38325;DHT22;24126;52.672;13.622;2023-03-08T17:11:43;7.90;67.70
38325;DHT22;24126;52.672;13.622;2023-03-08T17:14:12;7.90;67.80
38325;DHT22;24126;52.672;13.622;2023-03-08T17:16:39;7.90;67.90
38325;DHT22;24126;52.672;13.622;2023-03-08T17:19:07;7.90;67.80
38325;DHT22;24126;52.672;13.622;2023-03-08T17:21:34;7.90;68.00
38325;DHT22;24126;52.672;13.622;2023-03-08T17:24:03;7.90;68.10
38325;DHT22;24126;52.672;13.622;2023-03-08T17:26:32;7.90;68.20
38325;DHT22;24126;52.672;13.622;2023-03-08T17:28:59;7.90;68.20
38325;DHT22;24126;52.672;13.622;2023-03-08T17:31:26;7.90;68.20
38325;DHT22;24126;52.672;13.622;2023-03-08T17:33:54;7.90;68.20
38325;DHT22;24126;52.672;13.622;2023-03-08T17:36:21;7.90;68.30
38325;DHT22;24126;52.672;13.622;2023-03-08T17:38:50;7.80;68.50
38325;DHT22;24126;52.672;13.622;2023-03-08T17:41:17;7.80;68.70
38325;DHT22;24126;52.672;13.622;2023-03-08T17:43:44;7.80;68.80
38325;DHT22;24126;52.672;13.622;2023-03-08T17:46:12;7.80;68.90
38325;DHT22;24126;52.672;13.622;2023-03-08T17:48:40;7.80;68.80
38325;DHT22;24126;52.672;13.622;2023-03-08T17:51:08;7.80;68.90
38325;DHT22;24126;52.672;13.622;2023-03-08T17:53:35;7.80;68.90